sensor_id;sensor_type;location;lat;lon;timestamp;P1;durP1;ratioP1;P2;durP2;ratioP2
53389;SDS011;39288;42.970;1.524;2024-01-16T00:00:57;80.03;;;49.57;;
53389;SDS011;39288;42.970;1.524;2024-01-16T00:01:58;244.33;;;41.67;;
53389;SDS011;39288;42.970;1.524;2024-01-16T00:02:58;205.60;;;26.90;;
53389;SDS011;39288;42.970;1.524;2024-01-16T00:03:59;161.50;;;25.07;;
53389;SDS011;39288;42.970;1.524;2024-01-16T00:04:59;653.10;;;63.67;;
53389;SDS011;39288;42.970;1.524;2024-01-16T00:06:00;537.23;;;52.90;;
53389;SDS011;39288;42.970;1.524;2024-01-16T00:07:01;240.38;;;35.63;;
53389;SDS011;39288;42.970;1.524;2024-01-16T00:08:01;187.20;;;37.93;;
53389;SDS011;39288;42.970;1.524;2024-01-16T00:09:02;545.70;;;64.90;;
53389;SDS011;39288;42.970;1.524;2024-01-16T00:10:03;172.18;;;36.20;;
53389;SDS011;39288;42.970;1.524;2024-01-16T00:11:04;434.60;;;45.90;;
53389;SDS011;39288;42.970;1.524;2024-01-16T00:12:05;440.30;;;52.80;;
53389;SDS011;39288;42.970;1.524;2024-01-16T00:13:06;180.95;;;35.70;;
53389;SDS011;39288;42.970;1.524;2024-01-16T00:14:06;98.10;;;48.37;;
53389;SDS011;39288;42.970;1.524;2024-01-16T00:15:07;162.00;;;30.60;;
53389;SDS011;39288;42.970;1.524;2024-01-16T00:16:08;57.08;;;40.67;;
53389;SDS011;39288;42.970;1.524;2024-01-16T00:17:09;47.43;;;24.47;;
53389;SDS011;39288;42.970;1.524;2024-01-16T00:18:09;20.50;;;16.27;;
53389;SDS011;39288;42.970;1.524;2024-01-16T00:19:10;203.07;;;40.87;;
53389;SDS011;39288;42.970;1.524;2024-01-16T00:20:11;143.63;;;23.98;;
53389;SDS011;39288;42.970;1.524;2024-01-16T00:21:12;246.13;;;26.13;;
53389;SDS011;39288;42.970;1.524;2024-01-16T00:22:12;69.43;;;16.53;;
53389;SDS011;39288;42.970;1.524;2024-01-16T00:23:12;61.77;;;19.30;;
53389;SDS011;39288;42.970;1.524;2024-01-16T00:24:13;185.17;;;27.73;;
53389;SDS011;39288;42.970;1.524;2024-01-16T00:25:14;88.05;;;25.02;;
53389;SDS011;39288;42.970;1.524;2024-01-16T00:26:21;55.27;;;42.90;;
53389;SDS011;39288;42.970;1.524;2024-01-16T00:27:22;32.45;;;27.70;;
53389;SDS011;39288;42.970;1.524;2024-01-16T00:28:22;51.50;;;41.07;;
53389;SDS011;39288;42.970;1.524;2024-01-16T00:29:22;40.83;;;36.43;;
53389;SDS011;39288;42.970;1.524;2024-01-16T00:30:23;254.00;;;32.17;;
53389;SDS011;39288;42.970;1.524;2024-01-16T00:31:24;56.77;;;18.10;;
53389;SDS011;39288;42.970;1.524;2024-01-16T00:32:24;39.60;;;16.87;;
53389;SDS011;39288;42.970;1.524;2024-01-16T00:33:24;46.43;;;40.03;;
53389;SDS011;39288;42.970;1.524;2024-01-16T00:34:27;205.00;;;44.00;;
53389;SDS011;39288;42.970;1.524;2024-01-16T00:35:27;528.90;;;48.17;;
53389;SDS011;39288;42.970;1.524;2024-01-16T00:36:28;130.57;;;22.10;;
53389;SDS011;39288;42.970;1.524;2024-01-16T00:37:28;61.43;;;26.70;;
53389;SDS011;39288;42.970;1.524;2024-01-16T00:38:28;31.17;;;21.37;;
53389;SDS011;39288;42.970;1.524;2024-01-16T00:39:29;33.37;;;24.87;;
53389;SDS011;39288;42.970;1.524;2024-01-16T00:40:29;30.80;;;23.27;;
53389;SDS011;39288;42.970;1.524;2024-01-16T00:41:30;27.27;;;20.47;;
53389;SDS011;39288;42.970;1.524;2024-01-16T00:42:31;24.23;;;19.53;;
53389;SDS011;39288;42.970;1.524;2024-01-16T00:43:32;19.35;;;16.30;;
53389;SDS011;39288;42.970;1.524;2024-01-16T00:44:32;30.27;;;19.60;;
53389;SDS011;39288;42.970;1.524;2024-01-16T00:46:35;22.52;;;18.48;;
53389;SDS011;39288;42.970;1.524;2024-01-16T00:47:35;29.90;;;19.63;;
53389;SDS011;39288;42.970;1.524;2024-01-16T00:48:35;23.03;;;18.10;;
53389;SDS011;39288;42.970;1.524;2024-01-16T00:49:36;22.00;;;17.57;;
53389;SDS011;39288;42.970;1.524;2024-01-16T00:50:37;26.25;;;19.08;;
53389;SDS011;39288;42.970;1.524;2024-01-16T00:51:37;23.73;;;17.57;;
53389;SDS011;39288;42.970;1.524;2024-01-16T00:52:38;22.97;;;18.60;;
53389;SDS011;39288;42.970;1.524;2024-01-16T00:53:41;17.07;;;15.27;;
53389;SDS011;39288;42.970;1.524;2024-01-16T00:54:43;17.58;;;15.73;;
53389;SDS011;39288;42.970;1.524;2024-01-16T00:55:43;16.00;;;13.20;;
53389;SDS011;39288;42.970;1.524;2024-01-16T00:56:44;18.00;;;13.57;;
53389;SDS011;39288;42.970;1.524;2024-01-16T00:57:44;49.20;;;22.57;;
53389;SDS011;39288;42.970;1.524;2024-01-16T00:58:44;34.20;;;22.03;;
53389;SDS011;39288;42.970;1.524;2024-01-16T00:59:45;27.90;;;24.43;;
53389;SDS011;39288;42.970;1.524;2024-01-16T01:00:46;117.43;;;53.78;;
53389;SDS011;39288;42.970;1.524;2024-01-16T01:01:46;70.93;;;54.97;;
53389;SDS011;39288;42.970;1.524;2024-01-16T01:02:47;68.27;;;53.63;;
53389;SDS011;39288;42.970;1.524;2024-01-16T01:03:47;48.60;;;41.93;;
53389;SDS011;39288;42.970;1.524;2024-01-16T01:04:47;36.03;;;28.57;;
53389;SDS011;39288;42.970;1.524;2024-01-16T01:05:48;40.47;;;27.00;;
53389;SDS011;39288;42.970;1.524;2024-01-16T01:06:48;24.20;;;19.80;;
53389;SDS011;39288;42.970;1.524;2024-01-16T01:07:49;20.80;;;17.17;;
53389;SDS011;39288;42.970;1.524;2024-01-16T01:08:49;25.20;;;20.35;;
53389;SDS011;39288;42.970;1.524;2024-01-16T01:09:51;25.30;;;18.60;;
53389;SDS011;39288;42.970;1.524;2024-01-16T01:10:51;16.07;;;13.57;;
53389;SDS011;39288;42.970;1.524;2024-01-16T01:11:51;26.10;;;20.00;;
53389;SDS011;39288;42.970;1.524;2024-01-16T01:12:52;24.57;;;19.33;;
53389;SDS011;39288;42.970;1.524;2024-01-16T01:13:55;29.00;;;22.15;;
53389;SDS011;39288;42.970;1.524;2024-01-16T01:14:56;21.10;;;18.70;;
53389;SDS011;39288;42.970;1.524;2024-01-16T01:15:56;25.00;;;21.03;;
53389;SDS011;39288;42.970;1.524;2024-01-16T01:16:57;23.87;;;19.00;;
53389;SDS011;39288;42.970;1.524;2024-01-16T01:17:57;25.87;;;21.63;;
53389;SDS011;39288;42.970;1.524;2024-01-16T01:18:58;20.23;;;17.03;;
53389;SDS011;39288;42.970;1.524;2024-01-16T01:19:58;35.83;;;19.23;;
53389;SDS011;39288;42.970;1.524;2024-01-16T01:20:59;26.23;;;16.70;;
53389;SDS011;39288;42.970;1.524;2024-01-16T01:21:59;22.40;;;17.27;;
53389;SDS011;39288;42.970;1.524;2024-01-16T01:23:00;350.00;;;37.43;;
53389;SDS011;39288;42.970;1.524;2024-01-16T01:24:00;178.37;;;24.90;;
53389;SDS011;39288;42.970;1.524;2024-01-16T01:25:00;46.53;;;18.87;;
53389;SDS011;39288;42.970;1.524;2024-01-16T01:26:01;19.63;;;17.17;;
53389;SDS011;39288;42.970;1.524;2024-01-16T01:27:01;28.83;;;21.43;;
53389;SDS011;39288;42.970;1.524;2024-01-16T01:28:02;44.93;;;20.70;;
53389;SDS011;39288;42.970;1.524;2024-01-16T01:29:02;35.17;;;21.07;;
53389;SDS011;39288;42.970;1.524;2024-01-16T01:30:03;25.67;;;18.33;;
53389;SDS011;39288;42.970;1.524;2024-01-16T01:31:03;21.27;;;15.50;;
53389;SDS011;39288;42.970;1.524;2024-01-16T01:32:04;18.00;;;14.07;;
53389;SDS011;39288;42.970;1.524;2024-01-16T01:33:04;18.40;;;15.13;;
53389;SDS011;39288;42.970;1.524;2024-01-16T01:34:05;18.17;;;14.27;;
53389;SDS011;39288;42.970;1.524;2024-01-16T01:36:07;14.88;;;12.88;;
53389;SDS011;39288;42.970;1.524;2024-01-16T01:37:08;20.63;;;13.90;;
53389;SDS011;39288;42.970;1.524;2024-01-16T01:38:08;16.50;;;12.67;;
53389;SDS011;39288;42.970;1.524;2024-01-16T01:39:09;17.10;;;13.20;;
53389;SDS011;39288;42.970;1.524;2024-01-16T01:40:11;15.27;;;13.25;;
53389;SDS011;39288;42.970;1.524;2024-01-16T01:41:12;27.08;;;23.38;;
53389;SDS011;39288;42.970;1.524;2024-01-16T01:42:14;18.50;;;16.57;;
53389;SDS011;39288;42.970;1.524;2024-01-16T01:43:22;23.73;;;21.05;;
53389;SDS011;39288;42.970;1.524;2024-01-16T01:44:24;16.52;;;14.82;;
53389;SDS011;39288;42.970;1.524;2024-01-16T01:45:25;23.67;;;19.40;;
53389;SDS011;39288;42.970;1.524;2024-01-16T01:46:25;18.37;;;16.20;;
53389;SDS011;39288;42.970;1.524;2024-01-16T01:47:26;26.07;;;18.80;;
53389;SDS011;39288;42.970;1.524;2024-01-16T01:48:26;30.70;;;24.57;;
53389;SDS011;39288;42.970;1.524;2024-01-16T01:49:27;23.40;;;20.33;;
53389;SDS011;39288;42.970;1.524;2024-01-16T01:50:28;623.30;;;53.20;;
53389;SDS011;39288;42.970;1.524;2024-01-16T01:51:28;58.37;;;17.43;;
53389;SDS011;39288;42.970;1.524;2024-01-16T01:52:30;18.83;;;13.10;;
53389;SDS011;39288;42.970;1.524;2024-01-16T01:53:32;21.00;;;18.75;;
53389;SDS011;39288;42.970;1.524;2024-01-16T01:54:36;22.38;;;19.02;;
53389;SDS011;39288;42.970;1.524;2024-01-16T01:55:38;375.50;;;35.45;;
53389;SDS011;39288;42.970;1.524;2024-01-16T01:56:38;15.30;;;13.67;;
53389;SDS011;39288;42.970;1.524;2024-01-16T01:57:40;14.80;;;13.07;;
53389;SDS011;39288;42.970;1.524;2024-01-16T01:58:43;574.50;;;46.08;;
53389;SDS011;39288;42.970;1.524;2024-01-16T01:59:45;508.70;;;47.83;;
53389;SDS011;39288;42.970;1.524;2024-01-16T02:00:46;33.47;;;16.93;;
53389;SDS011;39288;42.970;1.524;2024-01-16T02:01:46;81.63;;;18.67;;
53389;SDS011;39288;42.970;1.524;2024-01-16T02:03:49;82.82;;;15.98;;
53389;SDS011;39288;42.970;1.524;2024-01-16T02:04:51;13.10;;;11.75;;
53389;SDS011;39288;42.970;1.524;2024-01-16T02:05:51;18.57;;;14.83;;
53389;SDS011;39288;42.970;1.524;2024-01-16T02:06:52;21.38;;;14.88;;
53389;SDS011;39288;42.970;1.524;2024-01-16T02:07:53;44.78;;;35.72;;
53389;SDS011;39288;42.970;1.524;2024-01-16T02:08:54;20.07;;;15.57;;
53389;SDS011;39288;42.970;1.524;2024-01-16T02:09:54;24.63;;;18.40;;
53389;SDS011;39288;42.970;1.524;2024-01-16T02:10:55;21.90;;;15.27;;
53389;SDS011;39288;42.970;1.524;2024-01-16T02:11:55;82.60;;;16.30;;
53389;SDS011;39288;42.970;1.524;2024-01-16T02:12:56;23.17;;;14.27;;
53389;SDS011;39288;42.970;1.524;2024-01-16T02:13:56;365.57;;;34.60;;
53389;SDS011;39288;42.970;1.524;2024-01-16T02:14:57;427.17;;;37.20;;
53389;SDS011;39288;42.970;1.524;2024-01-16T02:15:57;443.13;;;45.10;;
53389;SDS011;39288;42.970;1.524;2024-01-16T02:16:57;1136.43;;;94.20;;
53389;SDS011;39288;42.970;1.524;2024-01-16T02:17:58;577.20;;;52.23;;
53389;SDS011;39288;42.970;1.524;2024-01-16T02:18:58;34.60;;;14.13;;
53389;SDS011;39288;42.970;1.524;2024-01-16T02:19:59;25.60;;;15.23;;
53389;SDS011;39288;42.970;1.524;2024-01-16T02:21:00;21.47;;;13.53;;
53389;SDS011;39288;42.970;1.524;2024-01-16T02:22:05;13.27;;;11.05;;
53389;SDS011;39288;42.970;1.524;2024-01-16T02:23:12;15.98;;;12.38;;
53389;SDS011;39288;42.970;1.524;2024-01-16T02:24:14;15.98;;;11.35;;
53389;SDS011;39288;42.970;1.524;2024-01-16T02:25:16;14.75;;;10.85;;
53389;SDS011;39288;42.970;1.524;2024-01-16T02:26:17;15.57;;;12.87;;
53389;SDS011;39288;42.970;1.524;2024-01-16T02:27:19;14.45;;;11.50;;
53389;SDS011;39288;42.970;1.524;2024-01-16T02:28:19;17.20;;;12.73;;
53389;SDS011;39288;42.970;1.524;2024-01-16T02:29:19;11.77;;;10.43;;
53389;SDS011;39288;42.970;1.524;2024-01-16T02:30:20;10.70;;;9.10;;
53389;SDS011;39288;42.970;1.524;2024-01-16T02:31:20;14.50;;;9.57;;
53389;SDS011;39288;42.970;1.524;2024-01-16T02:32:21;40.33;;;17.87;;
53389;SDS011;39288;42.970;1.524;2024-01-16T02:33:21;18.37;;;13.37;;
53389;SDS011;39288;42.970;1.524;2024-01-16T02:34:21;39.07;;;28.37;;
53389;SDS011;39288;42.970;1.524;2024-01-16T02:35:22;24.23;;;15.03;;
53389;SDS011;39288;42.970;1.524;2024-01-16T02:36:22;36.53;;;17.10;;
53389;SDS011;39288;42.970;1.524;2024-01-16T02:37:23;72.03;;;21.57;;
53389;SDS011;39288;42.970;1.524;2024-01-16T02:38:23;16.27;;;13.00;;
53389;SDS011;39288;42.970;1.524;2024-01-16T02:39:23;33.07;;;17.50;;
53389;SDS011;39288;42.970;1.524;2024-01-16T02:40:25;27.98;;;14.13;;
53389;SDS011;39288;42.970;1.524;2024-01-16T02:41:25;22.97;;;12.10;;
53389;SDS011;39288;42.970;1.524;2024-01-16T02:42:26;22.63;;;13.40;;
53389;SDS011;39288;42.970;1.524;2024-01-16T02:43:26;167.43;;;18.27;;
53389;SDS011;39288;42.970;1.524;2024-01-16T02:44:27;1000.27;;;68.87;;
53389;SDS011;39288;42.970;1.524;2024-01-16T02:45:27;1416.60;;;118.93;;
53389;SDS011;39288;42.970;1.524;2024-01-16T02:46:27;1199.97;;;97.33;;
53389;SDS011;39288;42.970;1.524;2024-01-16T02:47:28;208.87;;;23.97;;
53389;SDS011;39288;42.970;1.524;2024-01-16T02:48:28;462.63;;;44.23;;
53389;SDS011;39288;42.970;1.524;2024-01-16T02:49:28;305.90;;;27.13;;
53389;SDS011;39288;42.970;1.524;2024-01-16T02:50:32;46.83;;;13.73;;
53389;SDS011;39288;42.970;1.524;2024-01-16T02:51:32;26.20;;;15.40;;
53389;SDS011;39288;42.970;1.524;2024-01-16T02:52:32;271.00;;;31.27;;
53389;SDS011;39288;42.970;1.524;2024-01-16T02:53:33;61.10;;;18.30;;
53389;SDS011;39288;42.970;1.524;2024-01-16T02:54:33;28.57;;;17.77;;
53389;SDS011;39288;42.970;1.524;2024-01-16T02:55:34;27.20;;;17.77;;
53389;SDS011;39288;42.970;1.524;2024-01-16T02:56:34;75.67;;;17.50;;
53389;SDS011;39288;42.970;1.524;2024-01-16T02:57:35;131.97;;;19.90;;
53389;SDS011;39288;42.970;1.524;2024-01-16T02:58:35;175.00;;;22.07;;
53389;SDS011;39288;42.970;1.524;2024-01-16T02:59:36;153.23;;;17.33;;
53389;SDS011;39288;42.970;1.524;2024-01-16T03:00:37;51.97;;;12.97;;
53389;SDS011;39288;42.970;1.524;2024-01-16T03:01:37;12.03;;;10.03;;
53389;SDS011;39288;42.970;1.524;2024-01-16T03:02:38;12.40;;;10.33;;
53389;SDS011;39288;42.970;1.524;2024-01-16T03:03:39;13.38;;;10.75;;
53389;SDS011;39288;42.970;1.524;2024-01-16T03:04:39;10.63;;;8.67;;
53389;SDS011;39288;42.970;1.524;2024-01-16T03:05:40;10.53;;;8.83;;
53389;SDS011;39288;42.970;1.524;2024-01-16T03:06:40;12.83;;;8.00;;
53389;SDS011;39288;42.970;1.524;2024-01-16T03:07:41;25.50;;;10.43;;
53389;SDS011;39288;42.970;1.524;2024-01-16T03:08:41;99.23;;;15.97;;
53389;SDS011;39288;42.970;1.524;2024-01-16T03:09:41;9.90;;;8.00;;
53389;SDS011;39288;42.970;1.524;2024-01-16T03:10:42;11.43;;;9.53;;
53389;SDS011;39288;42.970;1.524;2024-01-16T03:11:42;11.90;;;8.70;;
53389;SDS011;39288;42.970;1.524;2024-01-16T03:12:43;631.80;;;47.70;;
53389;SDS011;39288;42.970;1.524;2024-01-16T03:13:43;18.27;;;8.50;;
53389;SDS011;39288;42.970;1.524;2024-01-16T03:14:43;47.33;;;13.33;;
53389;SDS011;39288;42.970;1.524;2024-01-16T03:15:44;11.00;;;8.90;;
53389;SDS011;39288;42.970;1.524;2024-01-16T03:16:46;11.98;;;8.40;;
53389;SDS011;39288;42.970;1.524;2024-01-16T03:17:47;14.43;;;10.10;;
53389;SDS011;39288;42.970;1.524;2024-01-16T03:18:47;10.35;;;8.40;;
53389;SDS011;39288;42.970;1.524;2024-01-16T03:19:48;7.27;;;5.53;;
53389;SDS011;39288;42.970;1.524;2024-01-16T03:20:48;6.47;;;5.20;;
53389;SDS011;39288;42.970;1.524;2024-01-16T03:21:48;543.03;;;34.03;;
53389;SDS011;39288;42.970;1.524;2024-01-16T03:22:49;641.67;;;55.97;;
53389;SDS011;39288;42.970;1.524;2024-01-16T03:23:50;303.83;;;33.35;;
53389;SDS011;39288;42.970;1.524;2024-01-16T03:24:50;575.17;;;50.20;;
53389;SDS011;39288;42.970;1.524;2024-01-16T03:25:51;72.87;;;13.63;;
53389;SDS011;39288;42.970;1.524;2024-01-16T03:26:51;17.47;;;10.87;;
53389;SDS011;39288;42.970;1.524;2024-01-16T03:27:52;21.87;;;16.90;;
53389;SDS011;39288;42.970;1.524;2024-01-16T03:28:52;13.93;;;9.83;;
53389;SDS011;39288;42.970;1.524;2024-01-16T03:29:53;12.10;;;8.70;;
53389;SDS011;39288;42.970;1.524;2024-01-16T03:30:53;9.40;;;6.97;;
53389;SDS011;39288;42.970;1.524;2024-01-16T03:31:54;12.77;;;9.13;;
53389;SDS011;39288;42.970;1.524;2024-01-16T03:32:54;19.30;;;10.90;;
53389;SDS011;39288;42.970;1.524;2024-01-16T03:33:54;274.73;;;23.53;;
53389;SDS011;39288;42.970;1.524;2024-01-16T03:34:55;205.17;;;21.73;;
53389;SDS011;39288;42.970;1.524;2024-01-16T03:35:55;106.20;;;12.17;;
53389;SDS011;39288;42.970;1.524;2024-01-16T03:36:55;243.53;;;22.70;;
53389;SDS011;39288;42.970;1.524;2024-01-16T03:37:56;178.67;;;18.03;;
53389;SDS011;39288;42.970;1.524;2024-01-16T03:38:56;293.53;;;22.77;;
53389;SDS011;39288;42.970;1.524;2024-01-16T03:39:57;9.83;;;6.97;;
53389;SDS011;39288;42.970;1.524;2024-01-16T03:40:57;9.50;;;6.90;;
53389;SDS011;39288;42.970;1.524;2024-01-16T03:41:57;8.30;;;6.00;;
53389;SDS011;39288;42.970;1.524;2024-01-16T03:42:58;11.70;;;5.93;;
53389;SDS011;39288;42.970;1.524;2024-01-16T03:43:59;16.43;;;6.43;;
53389;SDS011;39288;42.970;1.524;2024-01-16T03:44:59;11.13;;;7.83;;
53389;SDS011;39288;42.970;1.524;2024-01-16T03:45:59;10.13;;;6.40;;
53389;SDS011;39288;42.970;1.524;2024-01-16T03:47:00;5.90;;;5.23;;
53389;SDS011;39288;42.970;1.524;2024-01-16T03:48:01;9.93;;;5.00;;
53389;SDS011;39288;42.970;1.524;2024-01-16T03:49:03;9.55;;;5.93;;
53389;SDS011;39288;42.970;1.524;2024-01-16T03:50:03;6.70;;;5.60;;
53389;SDS011;39288;42.970;1.524;2024-01-16T03:51:04;9.45;;;7.32;;
53389;SDS011;39288;42.970;1.524;2024-01-16T03:52:06;6.95;;;6.00;;
53389;SDS011;39288;42.970;1.524;2024-01-16T03:53:07;6.93;;;5.10;;
53389;SDS011;39288;42.970;1.524;2024-01-16T03:54:08;312.65;;;28.23;;
53389;SDS011;39288;42.970;1.524;2024-01-16T03:55:09;494.77;;;40.30;;
53389;SDS011;39288;42.970;1.524;2024-01-16T03:56:09;248.07;;;19.30;;
53389;SDS011;39288;42.970;1.524;2024-01-16T03:57:10;16.23;;;8.87;;
53389;SDS011;39288;42.970;1.524;2024-01-16T03:58:10;66.73;;;11.57;;
53389;SDS011;39288;42.970;1.524;2024-01-16T03:59:10;207.83;;;22.30;;
53389;SDS011;39288;42.970;1.524;2024-01-16T04:00:11;18.23;;;16.40;;
53389;SDS011;39288;42.970;1.524;2024-01-16T04:01:12;48.63;;;11.40;;
53389;SDS011;39288;42.970;1.524;2024-01-16T04:02:13;26.43;;;9.60;;
53389;SDS011;39288;42.970;1.524;2024-01-16T04:03:13;7.90;;;6.27;;
53389;SDS011;39288;42.970;1.524;2024-01-16T04:04:14;9.30;;;6.40;;
53389;SDS011;39288;42.970;1.524;2024-01-16T04:05:15;10.63;;;7.07;;
53389;SDS011;39288;42.970;1.524;2024-01-16T04:06:16;12.40;;;7.93;;
53389;SDS011;39288;42.970;1.524;2024-01-16T04:07:17;18.27;;;6.95;;
53389;SDS011;39288;42.970;1.524;2024-01-16T04:08:17;13.97;;;6.17;;
53389;SDS011;39288;42.970;1.524;2024-01-16T04:09:18;11.63;;;7.87;;
53389;SDS011;39288;42.970;1.524;2024-01-16T04:10:18;165.20;;;20.13;;
53389;SDS011;39288;42.970;1.524;2024-01-16T04:11:19;23.43;;;11.77;;
53389;SDS011;39288;42.970;1.524;2024-01-16T04:12:19;13.47;;;7.60;;
53389;SDS011;39288;42.970;1.524;2024-01-16T04:13:20;13.37;;;6.87;;
53389;SDS011;39288;42.970;1.524;2024-01-16T04:14:20;9.50;;;4.60;;
53389;SDS011;39288;42.970;1.524;2024-01-16T04:15:21;7.20;;;4.13;;
53389;SDS011;39288;42.970;1.524;2024-01-16T04:16:22;16.17;;;14.70;;
53389;SDS011;39288;42.970;1.524;2024-01-16T04:17:22;21.33;;;8.03;;
53389;SDS011;39288;42.970;1.524;2024-01-16T04:18:22;54.77;;;11.27;;
53389;SDS011;39288;42.970;1.524;2024-01-16T04:19:23;7.73;;;6.33;;
53389;SDS011;39288;42.970;1.524;2024-01-16T04:20:23;9.40;;;6.37;;
53389;SDS011;39288;42.970;1.524;2024-01-16T04:21:24;10.77;;;6.27;;
53389;SDS011;39288;42.970;1.524;2024-01-16T04:22:24;8.57;;;6.53;;
53389;SDS011;39288;42.970;1.524;2024-01-16T04:23:24;12.27;;;10.90;;
53389;SDS011;39288;42.970;1.524;2024-01-16T04:24:25;11.00;;;5.63;;
53389;SDS011;39288;42.970;1.524;2024-01-16T04:25:25;8.30;;;6.80;;
53389;SDS011;39288;42.970;1.524;2024-01-16T04:26:25;11.77;;;6.73;;
53389;SDS011;39288;42.970;1.524;2024-01-16T04:27:26;15.07;;;5.63;;
53389;SDS011;39288;42.970;1.524;2024-01-16T04:28:27;10.77;;;6.87;;
53389;SDS011;39288;42.970;1.524;2024-01-16T04:29:27;10.03;;;6.70;;
53389;SDS011;39288;42.970;1.524;2024-01-16T04:30:27;10.23;;;6.03;;
53389;SDS011;39288;42.970;1.524;2024-01-16T04:31:28;9.50;;;5.83;;
53389;SDS011;39288;42.970;1.524;2024-01-16T04:32:28;9.40;;;5.90;;
53389;SDS011;39288;42.970;1.524;2024-01-16T04:33:29;9.57;;;6.80;;
53389;SDS011;39288;42.970;1.524;2024-01-16T04:34:29;8.87;;;5.93;;
53389;SDS011;39288;42.970;1.524;2024-01-16T04:35:30;32.43;;;7.90;;
53389;SDS011;39288;42.970;1.524;2024-01-16T04:36:30;10.33;;;6.47;;
53389;SDS011;39288;42.970;1.524;2024-01-16T04:37:30;8.73;;;5.70;;
53389;SDS011;39288;42.970;1.524;2024-01-16T04:38:31;10.87;;;5.23;;
53389;SDS011;39288;42.970;1.524;2024-01-16T04:39:31;8.87;;;5.70;;
53389;SDS011;39288;42.970;1.524;2024-01-16T04:40:31;6.33;;;4.90;;
53389;SDS011;39288;42.970;1.524;2024-01-16T04:41:32;13.93;;;5.80;;
53389;SDS011;39288;42.970;1.524;2024-01-16T04:42:32;29.23;;;6.73;;
53389;SDS011;39288;42.970;1.524;2024-01-16T04:43:33;402.63;;;28.13;;
53389;SDS011;39288;42.970;1.524;2024-01-16T04:44:34;81.00;;;9.53;;
53389;SDS011;39288;42.970;1.524;2024-01-16T04:45:34;381.13;;;28.97;;
53389;SDS011;39288;42.970;1.524;2024-01-16T04:46:34;202.10;;;17.77;;
53389;SDS011;39288;42.970;1.524;2024-01-16T04:47:35;10.80;;;6.50;;
53389;SDS011;39288;42.970;1.524;2024-01-16T04:48:35;9.77;;;6.23;;
53389;SDS011;39288;42.970;1.524;2024-01-16T04:49:36;5.53;;;4.67;;
53389;SDS011;39288;42.970;1.524;2024-01-16T04:50:36;4.93;;;4.27;;
53389;SDS011;39288;42.970;1.524;2024-01-16T04:51:37;25.03;;;6.90;;
53389;SDS011;39288;42.970;1.524;2024-01-16T04:52:37;9.93;;;6.30;;
53389;SDS011;39288;42.970;1.524;2024-01-16T04:53:37;14.30;;;6.47;;
53389;SDS011;39288;42.970;1.524;2024-01-16T04:54:38;8.03;;;6.27;;
53389;SDS011;39288;42.970;1.524;2024-01-16T04:55:38;10.27;;;9.23;;
53389;SDS011;39288;42.970;1.524;2024-01-16T04:56:38;10.90;;;5.83;;
53389;SDS011;39288;42.970;1.524;2024-01-16T04:57:39;6.43;;;5.73;;
53389;SDS011;39288;42.970;1.524;2024-01-16T04:58:39;8.57;;;5.90;;
53389;SDS011;39288;42.970;1.524;2024-01-16T04:59:40;13.63;;;9.13;;
53389;SDS011;39288;42.970;1.524;2024-01-16T05:00:40;11.93;;;10.13;;
53389;SDS011;39288;42.970;1.524;2024-01-16T05:01:40;7.37;;;6.57;;
53389;SDS011;39288;42.970;1.524;2024-01-16T05:02:41;8.87;;;6.27;;
53389;SDS011;39288;42.970;1.524;2024-01-16T05:03:41;9.27;;;6.63;;
53389;SDS011;39288;42.970;1.524;2024-01-16T05:04:42;8.80;;;5.57;;
53389;SDS011;39288;42.970;1.524;2024-01-16T05:05:42;8.17;;;6.00;;
53389;SDS011;39288;42.970;1.524;2024-01-16T05:06:43;20.73;;;18.53;;
53389;SDS011;39288;42.970;1.524;2024-01-16T05:07:43;17.07;;;14.47;;
53389;SDS011;39288;42.970;1.524;2024-01-16T05:08:44;10.10;;;9.03;;
53389;SDS011;39288;42.970;1.524;2024-01-16T05:09:44;9.13;;;7.63;;
53389;SDS011;39288;42.970;1.524;2024-01-16T05:10:45;9.07;;;7.60;;
53389;SDS011;39288;42.970;1.524;2024-01-16T05:11:45;12.00;;;10.90;;
53389;SDS011;39288;42.970;1.524;2024-01-16T05:12:46;10.83;;;8.87;;
53389;SDS011;39288;42.970;1.524;2024-01-16T05:13:46;15.63;;;9.27;;
53389;SDS011;39288;42.970;1.524;2024-01-16T05:14:47;8.40;;;7.60;;
53389;SDS011;39288;42.970;1.524;2024-01-16T05:15:47;9.37;;;8.10;;
53389;SDS011;39288;42.970;1.524;2024-01-16T05:16:47;11.33;;;6.50;;
53389;SDS011;39288;42.970;1.524;2024-01-16T05:17:48;8.80;;;5.50;;
53389;SDS011;39288;42.970;1.524;2024-01-16T05:18:48;8.73;;;5.83;;
53389;SDS011;39288;42.970;1.524;2024-01-16T05:19:49;9.90;;;9.00;;
53389;SDS011;39288;42.970;1.524;2024-01-16T05:20:49;6.87;;;6.03;;
53389;SDS011;39288;42.970;1.524;2024-01-16T05:21:49;8.90;;;7.13;;
53389;SDS011;39288;42.970;1.524;2024-01-16T05:22:50;10.57;;;9.37;;
53389;SDS011;39288;42.970;1.524;2024-01-16T05:23:50;8.40;;;7.57;;
53389;SDS011;39288;42.970;1.524;2024-01-16T05:24:51;10.57;;;6.43;;
53389;SDS011;39288;42.970;1.524;2024-01-16T05:25:51;7.97;;;5.50;;
53389;SDS011;39288;42.970;1.524;2024-01-16T05:26:52;6.30;;;5.40;;
53389;SDS011;39288;42.970;1.524;2024-01-16T05:27:52;13.53;;;5.90;;
53389;SDS011;39288;42.970;1.524;2024-01-16T05:28:53;12.03;;;8.73;;
53389;SDS011;39288;42.970;1.524;2024-01-16T05:29:53;8.13;;;6.00;;
53389;SDS011;39288;42.970;1.524;2024-01-16T05:30:54;5.07;;;4.50;;
53389;SDS011;39288;42.970;1.524;2024-01-16T05:31:54;6.20;;;5.47;;
53389;SDS011;39288;42.970;1.524;2024-01-16T05:32:55;6.60;;;5.40;;
53389;SDS011;39288;42.970;1.524;2024-01-16T05:33:55;5.53;;;4.40;;
53389;SDS011;39288;42.970;1.524;2024-01-16T05:34:55;7.13;;;3.30;;
53389;SDS011;39288;42.970;1.524;2024-01-16T05:35:59;16.93;;;6.40;;
53389;SDS011;39288;42.970;1.524;2024-01-16T05:36:59;11.82;;;7.03;;
53389;SDS011;39288;42.970;1.524;2024-01-16T05:38:00;8.17;;;5.97;;
53389;SDS011;39288;42.970;1.524;2024-01-16T05:39:00;8.73;;;6.00;;
53389;SDS011;39288;42.970;1.524;2024-01-16T05:40:01;10.60;;;7.50;;
53389;SDS011;39288;42.970;1.524;2024-01-16T05:42:03;5.22;;;4.10;;
53389;SDS011;39288;42.970;1.524;2024-01-16T05:43:05;25.25;;;5.30;;
53389;SDS011;39288;42.970;1.524;2024-01-16T05:44:05;8.23;;;4.60;;
53389;SDS011;39288;42.970;1.524;2024-01-16T05:45:06;8.77;;;5.13;;
53389;SDS011;39288;42.970;1.524;2024-01-16T05:46:06;5.07;;;4.20;;
53389;SDS011;39288;42.970;1.524;2024-01-16T05:47:07;4.70;;;3.70;;
53389;SDS011;39288;42.970;1.524;2024-01-16T05:48:07;7.50;;;4.17;;
53389;SDS011;39288;42.970;1.524;2024-01-16T05:49:08;6.28;;;5.28;;
53389;SDS011;39288;42.970;1.524;2024-01-16T05:50:09;8.87;;;6.60;;
53389;SDS011;39288;42.970;1.524;2024-01-16T05:51:09;10.67;;;5.33;;
53389;SDS011;39288;42.970;1.524;2024-01-16T05:52:10;7.20;;;4.87;;
53389;SDS011;39288;42.970;1.524;2024-01-16T05:53:10;15.13;;;8.43;;
53389;SDS011;39288;42.970;1.524;2024-01-16T05:54:11;19.67;;;16.73;;
53389;SDS011;39288;42.970;1.524;2024-01-16T05:55:11;11.97;;;8.80;;
53389;SDS011;39288;42.970;1.524;2024-01-16T05:56:12;6.93;;;4.97;;
53389;SDS011;39288;42.970;1.524;2024-01-16T05:57:12;8.47;;;6.63;;
53389;SDS011;39288;42.970;1.524;2024-01-16T05:58:12;8.10;;;5.57;;
53389;SDS011;39288;42.970;1.524;2024-01-16T05:59:13;8.87;;;6.20;;
53389;SDS011;39288;42.970;1.524;2024-01-16T06:00:14;12.30;;;8.60;;
53389;SDS011;39288;42.970;1.524;2024-01-16T06:01:14;12.07;;;9.37;;